Time;durP1;ratioP1;P1;durP2;ratioP2;P2;SDS_P1;SDS_P2;PMS_P1;PMS_P2;Temp;Humidity;BMP_temperature;BMP_pressure;BME280_temperature;BME280_humidity;BME280_pressure;Samples;Min_cycle;Max_cycle;Signal;HPM_P1;HPM_P2
2023/04/27 00:01:34;;;;;;;3.67;1.80;;;3.00;95.50;;;;;;5002549;28;20054;-61
2023/04/27 00:04:02;;;;;;;3.10;1.55;;;3.10;97.00;;;;;;5006305;28;20857;-61
2023/04/27 00:06:29;;;;;;;5.93;1.73;;;3.00;96.70;;;;;;5004622;28;20053;-62
2023/04/27 00:08:55;;;;;;;4.63;1.58;;;3.00;96.60;;;;;;4992391;28;20127;-61
2023/04/27 00:11:21;;;;;;;3.38;1.90;;;3.00;95.90;;;;;;5005187;28;20045;-61
2023/04/27 00:13:47;;;;;;;8.48;1.92;;;3.00;95.90;;;;;;5005115;28;20034;-61
2023/04/27 00:16:13;;;;;;;4.60;1.80;;;3.00;95.50;;;;;;5005996;28;20037;-61
2023/04/27 00:18:38;;;;;;;2.58;1.65;;;2.90;94.90;;;;;;4987055;28;20058;-61
2023/04/27 00:21:04;;;;;;;4.20;1.75;;;2.80;93.90;;;;;;5005921;28;20171;-61
2023/04/27 00:23:30;;;;;;;6.32;1.95;;;2.80;94.30;;;;;;5004749;28;20045;-61
2023/04/27 00:25:56;;;;;;;1.65;1.55;;;2.80;95.20;;;;;;5005806;28;20381;-61
2023/04/27 00:28:22;;;;;;;6.20;2.00;;;2.80;97.10;;;;;;5004808;28;20108;-61
2023/04/27 00:30:47;;;;;;;1.95;1.83;;;2.80;98.40;;;;;;4987773;28;20492;-61
2023/04/27 00:33:13;;;;;;;4.80;2.42;;;2.80;99.00;;;;;;5004944;28;20050;-61
2023/04/27 00:35:39;;;;;;;4.97;2.03;;;2.80;99.60;;;;;;5004549;28;20148;-61
2023/04/27 00:38:05;;;;;;;5.25;1.83;;;2.90;99.90;;;;;;4987826;28;20449;-60
2023/04/27 00:40:30;;;;;;;4.00;2.30;;;2.90;99.90;;;;;;5004462;28;20121;-61
2023/04/27 00:42:56;;;;;;;8.82;2.17;;;2.90;99.90;;;;;;5005893;28;20082;-61
2023/04/27 00:45:22;;;;;;;5.20;2.20;;;3.00;99.90;;;;;;5007223;28;20479;-61
2023/04/27 00:47:48;;;;;;;3.38;2.15;;;3.10;99.90;;;;;;5009651;28;20136;-61
2023/04/27 00:50:15;;;;;;;13.23;3.13;;;3.10;99.90;;;;;;5008782;28;20589;-61
2023/04/27 00:52:42;;;;;;;9.38;3.70;;;3.20;99.90;;;;;;5008188;28;20042;-60
2023/04/27 00:55:08;;;;;;;7.55;3.47;;;3.30;99.90;;;;;;5009518;28;20567;-61
2023/04/27 00:57:34;;;;;;;12.77;3.70;;;3.40;99.90;;;;;;5008194;28;20208;-61
2023/04/27 01:00:01;;;;;;;6.13;3.05;;;3.40;99.90;;;;;;4991580;28;20057;-61
2023/04/27 01:02:28;;;;;;;4.57;3.05;;;3.50;99.90;;;;;;5007787;28;20117;-60
2023/04/27 01:04:54;;;;;;;6.35;3.22;;;3.50;99.90;;;;;;5009025;28;20061;-60
2023/04/27 01:07:24;;;;;;;5.60;3.22;;;3.60;99.90;;;;;;5008265;28;20050;-61
2023/04/27 01:09:50;;;;;;;6.88;3.80;;;3.60;99.90;;;;;;5008638;28;20046;-61
2023/04/27 01:12:16;;;;;;;8.77;4.20;;;3.70;99.90;;;;;;5008897;28;20056;-61
2023/04/27 01:14:41;;;;;;;10.05;3.95;;;3.70;99.90;;;;;;5007596;28;20034;-60
2023/04/27 01:17:07;;;;;;;8.07;3.25;;;3.80;99.90;;;;;;5009249;28;20050;-60
2023/04/27 01:19:33;;;;;;;9.57;3.08;;;3.90;99.90;;;;;;5006880;28;20085;-61
2023/04/27 01:21:59;;;;;;;9.52;3.70;;;4.00;99.90;;;;;;5009476;28;20189;-60
2023/04/27 01:24:24;;;;;;;4.70;2.95;;;4.10;99.90;;;;;;5007343;28;20069;-60
2023/04/27 01:26:52;;;;;;;4.97;2.40;;;4.20;98.30;;;;;;5008475;28;20116;-61
2023/04/27 01:29:18;;;;;;;9.52;2.72;;;4.40;96.10;;;;;;5007811;28;20532;-61
2023/04/27 01:31:45;;;;;;;8.10;3.15;;;4.50;94.50;;;;;;5008020;28;20049;-60
2023/04/27 01:34:11;;;;;;;1.77;1.60;;;4.60;93.90;;;;;;4974314;28;20550;-61
2023/04/27 01:36:36;;;;;;;3.55;1.90;;;4.60;93.70;;;;;;5007182;28;20088;-61
2023/04/27 01:39:03;;;;;;;3.00;2.03;;;4.60;93.60;;;;;;5008904;28;20093;-61
2023/04/27 01:41:29;;;;;;;5.60;2.03;;;4.60;94.40;;;;;;5007060;28;20049;-60
2023/04/27 01:43:55;;;;;;;6.25;1.60;;;4.60;94.00;;;;;;4991143;28;20388;-61
2023/04/27 01:46:20;;;;;;;5.15;2.60;;;4.60;94.70;;;;;;4990067;28;20420;-61
2023/04/27 01:48:46;;;;;;;5.45;1.83;;;4.60;95.40;;;;;;5007825;28;20042;-61
2023/04/27 01:51:12;;;;;;;4.57;1.77;;;4.60;95.70;;;;;;5008278;28;20547;-61
2023/04/27 01:53:38;;;;;;;3.15;1.63;;;4.50;95.60;;;;;;5007038;28;20073;-61
2023/04/27 01:56:05;;;;;;;3.03;1.60;;;4.50;95.20;;;;;;4989732;28;20476;-61
2023/04/27 01:58:31;;;;;;;8.00;1.90;;;4.40;95.00;;;;;;5006647;28;20041;-61
2023/04/27 02:00:57;;;;;;;4.60;2.08;;;4.30;94.10;;;;;;5008441;28;20884;-61
2023/04/27 02:03:22;;;;;;;1.92;1.60;;;4.30;93.90;;;;;;5007124;28;20046;-61
2023/04/27 02:05:48;;;;;;;1.90;1.52;;;4.20;93.80;;;;;;5007381;28;20129;-61
2023/04/27 02:08:14;;;;;;;4.28;1.92;;;4.10;93.70;;;;;;5007864;28;20077;-61
2023/04/27 02:10:40;;;;;;;3.72;1.77;;;4.00;93.50;;;;;;5006743;28;20117;-61
2023/04/27 02:13:05;;;;;;;4.63;2.22;;;4.00;93.50;;;;;;5008059;28;20100;-61
2023/04/27 02:15:31;;;;;;;2.08;1.75;;;3.90;94.20;;;;;;5006432;28;20143;-61
2023/04/27 02:17:57;;;;;;;1.83;1.48;;;3.80;95.20;;;;;;5007721;28;20096;-60
2023/04/27 02:20:23;;;;;;;5.80;2.00;;;3.70;95.30;;;;;;4988740;28;20061;-61
2023/04/27 02:22:49;;;;;;;5.18;1.73;;;3.70;95.60;;;;;;5007615;28;20068;-61
2023/04/27 02:25:14;;;;;;;4.15;1.90;;;3.60;95.30;;;;;;5006832;28;20100;-60
2023/04/27 02:27:40;;;;;;;2.60;1.67;;;3.50;95.50;;;;;;4988650;28;20054;-82
2023/04/27 02:30:08;;;;;;;5.60;1.80;;;3.30;95.30;;;;;;4973580;28;20167;-60
2023/04/27 02:32:34;;;;;;;3.65;1.88;;;3.30;96.90;;;;;;4988577;28;20100;-68
2023/04/27 02:35:01;;;;;;;5.13;2.33;;;3.20;98.70;;;;;;4989935;28;20042;-61
2023/04/27 02:37:27;;;;;;;4.35;2.10;;;3.20;99.80;;;;;;4988469;28;20412;-61
2023/04/27 02:39:53;;;;;;;4.43;2.17;;;3.10;99.90;;;;;;4989085;28;20523;-60
2023/04/27 02:42:18;;;;;;;4.57;1.77;;;3.10;99.90;;;;;;5006515;28;20125;-71
2023/04/27 02:44:44;;;;;;;7.25;2.10;;;3.00;99.90;;;;;;5006892;28;20077;-61
2023/04/27 02:47:10;;;;;;;3.05;2.10;;;3.00;99.90;;;;;;4989276;28;20077;-61
2023/04/27 02:49:36;;;;;;;3.58;1.83;;;2.90;99.90;;;;;;4955986;28;20054;-61
2023/04/27 02:52:02;;;;;;;3.30;1.80;;;2.90;99.90;;;;;;5007304;28;20045;-61
2023/04/27 02:54:28;;;;;;;3.72;1.75;;;2.80;99.90;;;;;;5006418;28;20117;-61
2023/04/27 02:56:54;;;;;;;1.95;1.58;;;2.80;99.90;;;;;;5007026;28;20121;-61
2023/04/27 02:59:20;;;;;;;2.85;1.67;;;2.80;99.90;;;;;;4987950;28;20060;-61
2023/04/27 03:01:45;;;;;;;2.65;1.58;;;2.80;99.90;;;;;;5006447;28;20054;-61
2023/04/27 03:04:13;;;;;;;4.10;1.70;;;2.70;99.90;;;;;;5006149;28;20556;-61
2023/04/27 03:06:42;;;;;;;8.52;1.90;;;2.70;99.90;;;;;;5006150;28;20060;-60
2023/04/27 03:09:09;;;;;;;3.13;1.90;;;2.60;99.90;;;;;;5005772;28;20046;-60
2023/04/27 03:11:35;;;;;;;9.30;2.38;;;2.70;99.90;;;;;;5005943;28;20489;-60
2023/04/27 03:14:02;;;;;;;1.42;1.33;;;2.70;99.90;;;;;;5006816;28;20077;-60
2023/04/27 03:16:30;;;;;;;6.85;2.00;;;2.70;99.90;;;;;;5005787;28;20038;-61
2023/04/27 03:18:56;;;;;;;10.80;1.90;;;2.70;99.90;;;;;;5006764;28;20115;-61
2023/04/27 03:21:21;;;;;;;4.47;1.75;;;2.60;99.90;;;;;;4984568;28;20050;-61
2023/04/27 03:23:47;;;;;;;2.92;1.80;;;2.60;99.90;;;;;;4985243;28;20054;-61
2023/04/27 03:26:13;;;;;;;4.00;1.77;;;2.50;99.90;;;;;;4969427;28;20054;-61
2023/04/27 03:28:39;;;;;;;5.28;1.70;;;2.50;99.90;;;;;;4985795;28;20050;-61
2023/04/27 03:31:10;;;;;;;4.75;1.90;;;2.40;99.90;;;;;;4986225;28;20501;-60
2023/04/27 03:33:36;;;;;;;3.85;2.15;;;2.40;99.90;;;;;;4986247;28;20088;-60
2023/04/27 03:36:04;;;;;;;2.15;1.80;;;2.40;99.90;;;;;;4987247;28;20428;-61
2023/04/27 03:38:30;;;;;;;4.55;1.63;;;2.40;99.90;;;;;;4986120;28;20105;-61
2023/04/27 03:40:56;;;;;;;6.82;2.47;;;2.40;99.90;;;;;;4986422;28;20065;-61
2023/04/27 03:43:23;;;;;;;2.70;1.80;;;2.30;99.90;;;;;;4985159;28;20042;-61
2023/04/27 03:45:49;;;;;;;4.78;1.92;;;2.30;99.90;;;;;;4986003;28;20415;-61
2023/04/27 03:48:15;;;;;;;3.92;2.08;;;2.30;99.90;;;;;;4986664;28;20046;-61
2023/04/27 03:50:42;;;;;;;5.60;2.17;;;2.30;99.90;;;;;;4984936;28;20030;-60
2023/04/27 03:53:08;;;;;;;4.72;1.90;;;2.20;99.90;;;;;;4969362;28;20054;-61
2023/04/27 03:55:38;;;;;;;6.10;1.90;;;2.20;99.90;;;;;;4985731;28;20035;-61
2023/04/27 03:58:03;;;;;;;3.75;2.10;;;2.20;99.90;;;;;;4986251;28;20085;-60
2023/04/27 04:00:30;;;;;;;3.63;1.63;;;2.10;99.90;;;;;;4986176;28;20122;-61
2023/04/27 04:02:56;;;;;;;2.60;1.60;;;2.10;99.90;;;;;;4985878;28;20082;-61
2023/04/27 04:05:22;;;;;;;5.57;1.83;;;2.10;99.90;;;;;;4986142;28;20050;-78
2023/04/27 04:07:48;;;;;;;2.72;2.15;;;2.10;99.90;;;;;;4987276;28;20038;-60
2023/04/27 04:10:13;;;;;;;2.08;1.98;;;2.00;99.90;;;;;;4987409;28;20109;-60
2023/04/27 04:12:39;;;;;;;4.00;1.90;;;2.00;99.90;;;;;;4984461;28;20493;-61
2023/04/27 04:15:06;;;;;;;2.78;1.92;;;1.90;99.90;;;;;;4985535;28;20042;-61
2023/04/27 04:17:32;;;;;;;3.15;2.13;;;1.90;99.90;;;;;;4983933;28;20042;-61
2023/04/27 04:19:59;;;;;;;5.43;1.85;;;1.90;99.90;;;;;;4986587;28;20062;-61
2023/04/27 04:22:26;;;;;;;3.33;2.10;;;1.90;99.90;;;;;;4988501;28;20493;-60
2023/04/27 04:24:52;;;;;;;2.05;1.92;;;1.90;99.90;;;;;;4989437;28;20050;-61
2023/04/27 04:27:18;;;;;;;2.95;2.20;;;2.00;99.90;;;;;;4990364;28;20101;-69
2023/04/27 04:29:44;;;;;;;3.45;1.58;;;2.00;99.90;;;;;;4989244;28;20038;-60
2023/04/27 04:32:11;;;;;;;3.38;1.88;;;2.00;99.90;;;;;;4990389;28;20042;-60
2023/04/27 04:34:37;;;;;;;2.53;1.75;;;2.00;99.90;;;;;;4989041;28;20054;-69
2023/04/27 04:37:04;;;;;;;3.47;1.85;;;1.90;99.90;;;;;;4988008;28;20038;-61
2023/04/27 04:39:32;;;;;;;3.55;2.10;;;1.90;99.90;;;;;;4987733;28;20050;-60
2023/04/27 04:41:58;;;;;;;2.17;2.08;;;1.90;99.90;;;;;;4987776;28;20058;-60
2023/04/27 04:44:24;;;;;;;3.33;1.92;;;1.80;99.90;;;;;;4988056;28;20125;-61
2023/04/27 04:46:50;;;;;;;4.00;1.73;;;1.90;99.90;;;;;;4988345;28;20510;-60
2023/04/27 04:49:16;;;;;;;2.05;1.95;;;1.90;99.90;;;;;;4989652;28;20046;-60
2023/04/27 04:51:44;;;;;;;2.85;2.00;;;2.00;99.90;;;;;;4984792;28;20497;-61
2023/04/27 04:54:10;;;;;;;2.10;1.90;;;2.00;99.90;;;;;;4988292;28;20050;-61
2023/04/27 04:56:36;;;;;;;5.75;2.35;;;2.10;99.90;;;;;;4988997;28;20057;-60
2023/04/27 04:59:02;;;;;;;3.30;2.22;;;2.20;99.90;;;;;;4989276;28;20089;-66
2023/04/27 05:01:28;;;;;;;2.58;2.30;;;2.20;99.90;;;;;;4987948;28;20374;-60
2023/04/27 05:03:54;;;;;;;5.72;2.65;;;2.30;99.90;;;;;;4987068;28;20054;-60
2023/04/27 05:06:20;;;;;;;4.47;2.50;;;2.40;99.90;;;;;;4989266;28;20109;-60
2023/04/27 05:08:46;;;;;;;2.63;2.42;;;2.40;99.90;;;;;;4988063;28;20405;-61
2023/04/27 05:11:11;;;;;;;7.03;2.33;;;2.50;99.90;;;;;;4987766;28;20151;-61
2023/04/27 05:13:37;;;;;;;9.48;2.20;;;2.60;99.90;;;;;;4987782;28;20050;-61
2023/04/27 05:16:04;;;;;;;3.92;2.65;;;2.70;99.90;;;;;;4987797;28;20437;-61
2023/04/27 05:18:31;;;;;;;9.70;2.97;;;2.80;99.90;;;;;;4988663;28;20046;-60
2023/04/27 05:20:57;;;;;;;4.28;3.15;;;3.00;99.90;;;;;;5001249;28;20050;-60
2023/04/27 05:23:22;;;;;;;3.85;2.72;;;3.20;99.90;;;;;;5008473;28;20034;-61
2023/04/27 05:25:48;;;;;;;5.25;2.95;;;3.20;99.90;;;;;;5008412;28;20052;-77
2023/04/27 05:28:14;;;;;;;3.80;2.42;;;3.30;99.90;;;;;;5007881;28;20050;-61
2023/04/27 05:30:40;;;;;;;10.00;3.15;;;3.40;99.90;;;;;;5006654;28;20054;-61
2023/04/27 05:33:05;;;;;;;4.88;2.80;;;3.40;99.90;;;;;;5007981;28;20045;-61
2023/04/27 05:35:33;;;;;;;4.75;2.83;;;3.50;99.90;;;;;;5007830;28;20046;-60
2023/04/27 05:37:59;;;;;;;6.28;3.42;;;3.60;99.90;;;;;;5007764;28;20125;-61
2023/04/27 05:40:25;;;;;;;4.25;2.65;;;3.60;99.90;;;;;;5008060;28;20157;-60
2023/04/27 05:42:51;;;;;;;8.15;3.38;;;3.70;99.90;;;;;;5007474;28;20050;-60
2023/04/27 05:45:17;;;;;;;5.57;3.17;;;3.90;99.90;;;;;;5005400;28;20045;-61
2023/04/27 05:47:43;;;;;;;3.22;2.90;;;3.90;99.90;;;;;;5003843;28;20057;-60
2023/04/27 05:50:09;;;;;;;7.93;3.08;;;3.90;99.90;;;;;;5008453;28;20050;-61
2023/04/27 05:52:35;;;;;;;5.13;3.53;;;4.10;99.90;;;;;;4989242;28;20054;-61
2023/04/27 05:55:00;;;;;;;8.60;3.45;;;4.10;99.90;;;;;;5007689;28;20045;-61
2023/04/27 05:57:27;;;;;;;5.13;2.88;;;4.20;99.90;;;;;;5007605;28;20077;-88
2023/04/27 05:59:53;;;;;;;4.20;3.22;;;4.30;99.90;;;;;;5007439;28;20082;-60
2023/04/27 06:02:19;;;;;;;5.80;3.25;;;4.40;99.90;;;;;;5007224;28;20054;-61
2023/04/27 06:04:45;;;;;;;7.90;3.42;;;4.40;99.90;;;;;;5007200;28;20042;-60
2023/04/27 06:07:14;;;;;;;9.48;3.75;;;4.50;99.90;;;;;;5007773;28;20075;-61
2023/04/27 06:09:41;;;;;;;10.45;4.10;;;4.70;99.90;;;;;;5006260;28;20434;-60
2023/04/27 06:12:08;;;;;;;10.98;4.20;;;4.90;99.90;;;;;;5008070;28;20046;-61
2023/04/27 06:14:35;;;;;;;13.07;3.95;;;5.10;99.90;;;;;;5006409;28;20049;-61
2023/04/27 06:17:02;;;;;;;8.18;4.50;;;5.10;99.90;;;;;;5007117;28;20053;-60
2023/04/27 06:19:28;;;;;;;12.02;4.47;;;5.20;99.90;;;;;;5006907;28;20424;-61
2023/04/27 06:21:54;;;;;;;9.18;4.35;;;5.30;99.90;;;;;;4989506;28;20057;-85
2023/04/27 06:24:21;;;;;;;9.80;4.45;;;5.40;99.90;;;;;;4989257;28;20038;-88
2023/04/27 06:26:50;;;;;;;7.30;4.55;;;5.50;99.90;;;;;;4988841;28;20038;-62
2023/04/27 06:29:16;;;;;;;5.38;3.72;;;5.60;99.90;;;;;;5005838;28;20043;-62
2023/04/27 06:31:41;;;;;;;8.27;3.80;;;5.70;99.90;;;;;;5005633;28;20530;-61
2023/04/27 06:34:07;;;;;;;7.70;3.95;;;5.90;99.90;;;;;;4999800;28;20038;-62
2023/04/27 06:36:33;;;;;;;7.10;3.72;;;6.10;99.90;;;;;;5006819;28;20464;-62
2023/04/27 06:38:59;;;;;;;7.53;3.70;;;6.30;98.60;;;;;;4988446;28;20049;-62
2023/04/27 06:41:25;;;;;;;7.82;4.18;;;6.30;93.00;;;;;;5006252;28;20413;-61
2023/04/27 06:43:52;;;;;;;3.65;3.20;;;6.40;92.10;;;;;;5006137;28;20052;-62
2023/04/27 06:46:18;;;;;;;5.18;3.00;;;6.50;90.10;;;;;;5005209;28;20049;-62
2023/04/27 06:48:45;;;;;;;7.65;3.60;;;6.60;87.70;;;;;;4987892;28;20447;-62
2023/04/27 06:51:11;;;;;;;8.18;3.03;;;6.70;88.00;;;;;;5006604;28;20038;-62
2023/04/27 06:53:38;;;;;;;7.80;3.55;;;6.80;88.70;;;;;;5006255;28;20046;-62
2023/04/27 06:56:04;;;;;;;4.00;3.55;;;7.00;91.10;;;;;;4988092;28;20046;-62
2023/04/27 06:58:30;;;;;;;11.63;3.92;;;7.20;85.70;;;;;;4987989;28;20496;-62
2023/04/27 07:00:56;;;;;;;8.55;3.38;;;7.50;85.50;;;;;;4971259;28;20053;-62
2023/04/27 07:03:22;;;;;;;8.38;3.92;;;7.80;87.40;;;;;;5005537;28;20053;-62
2023/04/27 07:05:50;;;;;;;9.85;4.50;;;8.20;87.30;;;;;;5005812;28;20044;-61
2023/04/27 07:08:16;;;;;;;9.30;3.40;;;8.40;76.40;;;;;;5006664;28;20124;-62
2023/04/27 07:10:41;;;;;;;5.32;3.33;;;8.70;70.10;;;;;;4983228;28;20476;-62
2023/04/27 07:13:07;;;;;;;6.65;3.50;;;9.00;69.30;;;;;;5006774;28;20042;-62
2023/04/27 07:15:33;;;;;;;10.75;3.20;;;9.30;61.70;;;;;;4972300;28;20042;-62
2023/04/27 07:17:59;;;;;;;5.43;2.92;;;9.50;60.50;;;;;;4988567;28;20054;-62
2023/04/27 07:20:25;;;;;;;8.63;3.75;;;9.80;57.50;;;;;;5005599;28;20057;-62
2023/04/27 07:22:51;;;;;;;4.78;3.33;;;10.00;53.20;;;;;;5005290;28;20459;-62
2023/04/27 07:25:18;;;;;;;3.95;3.10;;;10.20;50.40;;;;;;5006137;28;20045;-60
2023/04/27 07:27:44;;;;;;;6.03;3.13;;;10.40;47.80;;;;;;5004957;28;20088;-60
2023/04/27 07:30:12;;;;;;;12.23;2.85;;;10.50;38.20;;;;;;5005903;28;20073;-60
2023/04/27 07:32:42;;;;;;;6.18;3.38;;;10.60;39.00;;;;;;5004694;28;20081;-60
2023/04/27 07:35:09;;;;;;;3.72;2.13;;;10.70;38.60;;;;;;5005880;28;20050;-60
2023/04/27 07:37:37;;;;;;;17.65;3.40;;;10.90;35.80;;;;;;4988611;28;20448;-60
2023/04/27 07:40:15;;;;;;;5.28;2.50;;;10.90;33.60;;;;;;5005267;28;20116;-60
2023/04/27 07:42:41;;;;;;;12.15;2.83;;;11.10;34.30;;;;;;5006175;28;20072;-60
2023/04/27 07:45:10;;;;;;;6.72;2.63;;;11.20;30.20;;;;;;5004906;28;20041;-60
2023/04/27 07:47:36;;;;;;;4.50;2.50;;;11.30;27.30;;;;;;5006731;28;20515;-60
2023/04/27 07:50:03;;;;;;;3.63;2.30;;;11.30;21.40;;;;;;5005534;28;20472;-60
2023/04/27 07:52:29;;;;;;;6.22;2.80;;;11.30;24.70;;;;;;5005039;28;20049;-60
2023/04/27 07:54:55;;;;;;;8.05;2.42;;;11.50;27.20;;;;;;4987869;28;20061;-60
2023/04/27 07:57:20;;;;;;;4.63;2.72;;;11.60;22.70;;;;;;5004944;28;20050;-60
2023/04/27 07:59:46;;;;;;;7.15;2.70;;;11.70;23.70;;;;;;4999954;28;20050;-60
2023/04/27 08:02:12;;;;;;;7.65;2.40;;;11.80;20.80;;;;;;5004568;28;20054;-60
2023/04/27 08:04:37;;;;;;;3.58;1.92;;;11.90;14.80;;;;;;5006153;28;20392;-60
2023/04/27 08:07:03;;;;;;;3.22;1.45;;;12.00;17.20;;;;;;5004802;28;20038;-60
2023/04/27 08:09:29;;;;;;;4.72;2.05;;;12.10;10.60;;;;;;5005478;28;20034;-60
2023/04/27 08:11:57;;;;;;;3.22;1.85;;;12.10;11.10;;;;;;5005474;28;20069;-60
2023/04/27 08:14:22;;;;;;;2.65;2.03;;;12.10;6.60;;;;;;5004104;28;20449;-60
2023/04/27 08:16:48;;;;;;;3.83;1.60;;;12.10;8.30;;;;;;5005868;28;20140;-60
2023/04/27 08:19:14;;;;;;;4.55;2.20;;;12.10;5.60;;;;;;5004303;28;20129;-60
2023/04/27 08:21:40;;;;;;;4.20;2.13;;;12.30;9.40;;;;;;5005946;28;20057;-60
2023/04/27 08:24:06;;;;;;;6.15;2.65;;;12.30;5.00;;;;;;5004462;28;20414;-60
2023/04/27 08:26:32;;;;;;;4.82;1.83;;;12.40;4.30;;;;;;5005678;28;20046;-60
2023/04/27 08:28:58;;;;;;;5.75;1.88;;;12.30;1.00;;;;;;5004979;28;20034;-60
2023/04/27 08:31:25;;;;;;;2.28;1.50;;;12.30;2.10;;;;;;5004488;28;20049;-60
2023/04/27 08:33:56;;;;;;;2.92;1.75;;;12.30;1.00;;;;;;4987418;28;20054;-60
2023/04/27 08:36:26;;;;;;;5.18;1.92;;;12.40;3.90;;;;;;5003249;28;20037;-60
2023/04/27 08:38:52;;;;;;;4.05;1.35;;;12.60;4.80;;;;;;4994220;28;20085;-60
2023/04/27 08:41:22;;;;;;;4.70;1.90;;;12.50;2.50;;;;;;4986386;28;20081;-60
2023/04/27 08:43:49;;;;;;;5.00;1.73;;;12.60;2.80;;;;;;5006648;28;20136;-60
2023/04/27 08:46:23;;;;;;;4.63;1.55;;;12.70;1.00;;;;;;5004720;28;20069;-60
2023/04/27 08:48:50;;;;;;;3.67;1.58;;;13.00;1.60;;;;;;5005140;28;20049;-60
2023/04/27 08:51:16;;;;;;;4.38;1.83;;;13.10;1.00;;;;;;5005200;28;20125;-60
2023/04/27 08:54:01;;;;;;;4.47;1.50;;;13.10;1.00;;;;;;4980409;28;20073;-60
2023/04/27 08:56:28;;;;;;;5.35;1.63;;;13.40;1.00;;;;;;4999570;28;20038;-60
2023/04/27 08:58:55;;;;;;;2.75;1.30;;;13.40;1.00;;;;;;4986855;28;20132;-60
2023/04/27 09:01:22;;;;;;;3.17;1.55;;;13.50;1.00;;;;;;4964620;28;20040;-60
2023/04/27 09:03:54;;;;;;;4.45;1.55;;;13.20;1.00;;;;;;5005258;28;20084;-58
2023/04/27 09:06:32;;;;;;;3.65;1.50;;;12.90;1.00;;;;;;4987332;28;20042;-59
2023/04/27 09:08:58;;;;;;;5.43;1.55;;;12.80;1.00;;;;;;4991142;28;20066;-58
2023/04/27 09:11:33;;;;;;;2.63;1.58;;;12.70;1.00;;;;;;4989539;28;20382;-59
2023/04/27 09:14:02;;;;;;;3.60;1.40;;;12.60;1.00;;;;;;5008913;28;20050;-58
2023/04/27 09:16:29;;;;;;;1.60;1.30;;;12.40;1.00;;;;;;4990117;28;20049;-58
2023/04/27 09:18:56;;;;;;;1.75;1.63;;;12.10;1.00;;;;;;4974675;28;20072;-58
2023/04/27 09:21:29;;;;;;;3.08;1.85;;;12.00;1.00;;;;;;4990170;28;20405;-59
2023/04/27 09:23:56;;;;;;;6.20;1.80;;;12.00;1.00;;;;;;5007697;28;20485;-58
2023/04/27 09:26:26;;;;;;;2.97;1.60;;;11.90;1.00;;;;;;5008352;28;20049;-58
2023/04/27 09:28:53;;;;;;;;;;;12.00;1.00;;;;;;5007663;28;20116;-58
2023/04/27 09:31:22;;;;;;;2.78;1.83;;;12.00;1.00;;;;;;4990877;28;19929;-58
2023/04/27 09:33:54;;;;;;;2.25;1.58;;;12.00;1.00;;;;;;4990532;28;20041;-58
2023/04/27 09:36:21;;;;;;;4.00;2.05;;;12.00;1.00;;;;;;5007748;28;20048;-58
2023/04/27 09:38:48;;;;;;;3.88;1.77;;;12.10;1.00;;;;;;5008235;28;20049;-58
2023/04/27 09:41:14;;;;;;;4.00;1.73;;;12.10;1.00;;;;;;5007240;28;20507;-58
2023/04/27 09:43:44;;;;;;;7.03;2.10;;;12.20;1.00;;;;;;5008127;28;20073;-59
2023/04/27 09:46:11;;;;;;;;;;;12.10;1.00;;;;;;5007939;28;20044;-59
2023/04/27 09:48:38;;;;;;;8.80;2.65;;;12.00;1.00;;;;;;5007746;28;19925;-58
2023/04/27 09:51:04;;;;;;;4.90;1.90;;;12.10;1.00;;;;;;5007695;28;20120;-59
2023/04/27 09:53:38;;;;;;;7.57;1.90;;;12.10;1.00;;;;;;4989687;28;20125;-59
2023/04/27 09:56:07;;;;;;;2.25;1.80;;;12.10;1.00;;;;;;5008181;28;20042;-58
2023/04/27 09:58:46;;;;;;;4.25;1.95;;;12.00;1.00;;;;;;5006207;28;20057;-58
2023/04/27 10:01:46;;;;;;;3.70;2.50;;;12.00;1.00;;;;;;4990613;28;20060;-59
2023/04/27 10:04:19;;;;;;;5.57;2.13;;;11.70;1.00;;;;;;4920910;28;20145;-58
2023/04/27 10:07:02;;;;;;;5.07;2.33;;;11.60;1.00;;;;;;5006978;28;20041;-59
2023/04/27 10:09:35;;;;;;;4.60;2.10;;;11.70;1.00;;;;;;4996910;28;20453;-58
2023/04/27 10:12:16;;;;;;;3.20;2.20;;;11.80;1.00;;;;;;5007058;28;20459;-58
2023/04/27 10:14:56;;;;;;;6.22;2.00;;;11.70;1.00;;;;;;4994656;28;20053;-59
2023/04/27 10:17:30;;;;;;;5.78;2.40;;;11.70;1.00;;;;;;5006854;28;20042;-59
2023/04/27 10:20:07;;;;;;;4.60;2.28;;;11.70;1.00;;;;;;5006479;28;20069;-59
2023/04/27 10:22:48;;;;;;;5.95;2.40;;;11.70;1.00;;;;;;5007366;28;20053;-58
2023/04/27 10:25:18;;;;;;;9.80;2.78;;;11.70;1.00;;;;;;5006740;28;20117;-59
2023/04/27 10:27:56;;;;;;;5.72;2.63;;;11.70;1.00;;;;;;5006987;28;20046;-59
2023/04/27 10:30:25;;;;;;;3.58;2.42;;;11.60;1.00;;;;;;5006909;28;20117;-59
2023/04/27 10:32:52;;;;;;;9.35;2.90;;;11.60;1.00;;;;;;5006298;28;20049;-59
2023/04/27 10:35:20;;;;;;;6.88;2.95;;;11.50;1.00;;;;;;5007699;28;20064;-59
2023/04/27 10:37:46;;;;;;;7.47;2.35;;;11.20;1.00;;;;;;4988030;28;20050;-59
2023/04/27 10:40:16;;;;;;;4.82;2.35;;;11.10;1.00;;;;;;5007790;28;20125;-59
2023/04/27 10:42:48;;;;;;;4.57;2.28;;;11.10;1.00;;;;;;4988058;28;20108;-59
2023/04/27 10:45:24;;;;;;;8.65;2.20;;;11.00;1.00;;;;;;5007039;28;20042;-59
2023/04/27 10:47:58;;;;;;;4.03;2.58;;;11.00;1.00;;;;;;5004156;28;20079;-60
2023/04/27 10:50:24;;;;;;;5.95;2.35;;;11.00;1.00;;;;;;5005867;28;20519;-60
2023/04/27 10:52:50;;;;;;;3.10;2.17;;;10.90;1.00;;;;;;4972670;28;20152;-59
2023/04/27 10:55:21;;;;;;;4.00;2.33;;;11.00;1.00;;;;;;4988988;28;20122;-60
2023/04/27 10:57:48;;;;;;;3.50;2.30;;;11.00;1.00;;;;;;4988777;28;20437;-60
2023/04/27 11:00:21;;;;;;;3.28;2.20;;;11.00;1.00;;;;;;5005399;28;20484;-60
2023/04/27 11:02:47;;;;;;;5.40;2.25;;;11.10;1.00;;;;;;4989341;28;20424;-60
2023/04/27 11:05:22;;;;;;;4.90;2.10;;;11.00;1.00;;;;;;5006382;28;20042;-59
2023/04/27 11:07:48;;;;;;;3.97;2.25;;;11.10;1.00;;;;;;5003921;28;20049;-60
2023/04/27 11:10:18;;;;;;;5.13;2.30;;;11.00;1.00;;;;;;4988865;28;20041;-60
2023/04/27 11:12:44;;;;;;;3.28;2.08;;;10.90;1.00;;;;;;5004953;28;20034;-60
2023/04/27 11:15:11;;;;;;;5.28;2.20;;;10.80;1.00;;;;;;5006770;28;20041;-59
2023/04/27 11:17:37;;;;;;;6.20;2.75;;;10.80;1.00;;;;;;5005229;28;20054;-59
2023/04/27 11:20:06;;;;;;;8.20;2.75;;;10.70;1.00;;;;;;5006143;28;20132;-59
2023/04/27 11:22:31;;;;;;;4.93;2.30;;;10.70;1.00;;;;;;5006105;28;20056;-59
2023/04/27 11:24:57;;;;;;;7.57;2.70;;;10.70;1.00;;;;;;5005534;28;20049;-60
2023/04/27 11:27:24;;;;;;;7.32;2.88;;;10.70;1.00;;;;;;4988829;28;20042;-60
2023/04/27 11:29:50;;;;;;;7.60;3.20;;;10.60;1.00;;;;;;4970278;28;20069;-60
2023/04/27 11:32:22;;;;;;;9.02;2.72;;;10.50;1.00;;;;;;5006291;28;20064;-60
2023/04/27 11:34:51;;;;;;;5.80;2.80;;;10.40;1.00;;;;;;5005521;28;20348;-60
2023/04/27 11:37:25;;;;;;;9.00;2.63;;;10.50;1.00;;;;;;4988194;28;20050;-60
2023/04/27 11:39:53;;;;;;;11.48;2.95;;;10.40;1.00;;;;;;5004662;28;20392;-60
2023/04/27 11:42:27;;;;;;;5.18;2.40;;;10.30;1.00;;;;;;5005019;28;20053;-60
2023/04/27 11:45:01;;;;;;;6.43;3.00;;;10.40;1.00;;;;;;5006373;28;20456;-60
2023/04/27 11:47:28;;;;;;;4.15;2.33;;;10.50;1.00;;;;;;5005609;28;20125;-60
2023/04/27 11:49:56;;;;;;;4.05;2.35;;;10.50;1.00;;;;;;5006000;28;20494;-60
2023/04/27 11:52:32;;;;;;;7.28;2.97;;;10.70;1.00;;;;;;4988370;28;20073;-60
2023/04/27 11:54:59;;;;;;;10.02;2.65;;;10.70;1.00;;;;;;5005196;28;20111;-60
2023/04/27 11:57:28;;;;;;;7.30;2.58;;;10.80;1.00;;;;;;5006295;28;20403;-60
2023/04/27 11:59:55;;;;;;;6.65;2.20;;;10.90;1.00;;;;;;5009334;28;20512;-60
2023/04/27 12:02:21;;;;;;;6.47;2.28;;;11.00;1.00;;;;;;5006223;28;20048;-60
2023/04/27 12:04:51;;;;;;;8.75;2.40;;;11.30;1.00;;;;;;4987094;28;20053;-60
2023/04/27 12:07:18;;;;;;;4.30;2.55;;;11.30;1.00;;;;;;5005309;28;20049;-60
2023/04/27 12:09:44;;;;;;;6.45;2.80;;;11.50;1.00;;;;;;5005097;28;20034;-60
2023/04/27 12:12:11;;;;;;;6.05;2.55;;;11.30;1.00;;;;;;4987368;28;20123;-60
2023/04/27 12:14:37;;;;;;;6.75;2.40;;;11.10;1.00;;;;;;5005453;28;20042;-60
2023/04/27 12:17:04;;;;;;;7.68;2.47;;;10.90;1.00;;;;;;5005200;28;20060;-60
2023/04/27 12:19:30;;;;;;;4.28;2.60;;;10.80;1.00;;;;;;5005826;28;20046;-60
2023/04/27 12:21:57;;;;;;;5.50;1.95;;;10.70;1.00;;;;;;5004530;28;20595;-60
2023/04/27 12:24:23;;;;;;;10.00;2.72;;;10.70;1.00;;;;;;4988818;28;20046;-60
2023/04/27 12:26:50;;;;;;;7.00;2.50;;;10.70;1.00;;;;;;5005365;28;20129;-60
2023/04/27 12:29:15;;;;;;;8.68;2.90;;;10.70;1.00;;;;;;5005072;28;20520;-60
2023/04/27 12:31:41;;;;;;;6.40;2.38;;;10.60;1.00;;;;;;5005307;28;20042;-60
2023/04/27 12:34:07;;;;;;;7.30;2.53;;;10.60;1.00;;;;;;5004968;28;20054;-60
2023/04/27 12:36:33;;;;;;;8.98;2.50;;;10.60;1.00;;;;;;5006109;28;20070;-60
2023/04/27 12:39:10;;;;;;;8.40;2.40;;;10.60;1.00;;;;;;4986481;28;20516;-60
2023/04/27 12:41:36;;;;;;;5.30;2.20;;;10.50;1.00;;;;;;5009129;28;20049;-60
2023/04/27 12:44:02;;;;;;;11.57;2.50;;;10.60;4.40;;;;;;5008279;28;20128;-60
2023/04/27 12:46:28;;;;;;;8.18;1.90;;;10.70;1.20;;;;;;5009364;28;20052;-60
2023/04/27 12:48:55;;;;;;;13.15;2.42;;;10.80;1.00;;;;;;5009163;28;20396;-60
2023/04/27 12:51:22;;;;;;;7.65;2.35;;;11.00;1.00;;;;;;5004221;28;20092;-60
2023/04/27 12:53:47;;;;;;;3.58;2.20;;;10.90;1.00;;;;;;4989474;28;20042;-60
2023/04/27 12:56:13;;;;;;;5.22;2.10;;;10.90;1.00;;;;;;4988727;28;20397;-60